sensor_id;sensor_type;location;lat;lon;timestamp;pressure;altitude;pressure_sealevel;temperature;humidity
69187;BME280;56301;56.864;60.554;2023-08-21T00:01:50;98055.28;;;23.71;50.66
69187;BME280;56301;56.864;60.554;2023-08-21T00:04:12;98065.38;;;23.84;50.21
69187;BME280;56301;56.864;60.554;2023-08-21T00:06:35;98063.78;;;23.96;51.21
69187;BME280;56301;56.864;60.554;2023-08-21T00:08:57;98063.06;;;24.09;50.59
69187;BME280;56301;56.864;60.554;2023-08-21T00:11:20;98068.31;;;24.17;50.05
69187;BME280;56301;56.864;60.554;2023-08-21T00:13:42;98075.84;;;23.94;49.91
69187;BME280;56301;56.864;60.554;2023-08-21T00:16:05;98072.44;;;23.42;49.98
69187;BME280;56301;56.864;60.554;2023-08-21T00:18:27;98080.19;;;23.30;50.71
69187;BME280;56301;56.864;60.554;2023-08-21T00:20:50;98083.75;;;23.16;50.81
69187;BME280;56301;56.864;60.554;2023-08-21T00:23:12;98094.94;;;23.13;50.62
69187;BME280;56301;56.864;60.554;2023-08-21T00:25:35;98098.06;;;23.32;50.10
69187;BME280;56301;56.864;60.554;2023-08-21T00:27:57;98091.38;;;23.49;50.42
69187;BME280;56301;56.864;60.554;2023-08-21T00:30:20;98094.59;;;23.59;49.02
69187;BME280;56301;56.864;60.554;2023-08-21T00:32:43;98094.13;;;23.70;49.50
69187;BME280;56301;56.864;60.554;2023-08-21T00:35:05;98088.19;;;23.82;50.13
69187;BME280;56301;56.864;60.554;2023-08-21T00:37:28;98091.66;;;23.97;50.32
69187;BME280;56301;56.864;60.554;2023-08-21T00:39:50;98097.56;;;24.07;49.99
69187;BME280;56301;56.864;60.554;2023-08-21T00:42:13;98097.44;;;24.15;49.86
69187;BME280;56301;56.864;60.554;2023-08-21T00:44:35;98099.63;;;24.05;48.92
69187;BME280;56301;56.864;60.554;2023-08-21T00:46:58;98109.38;;;23.42;47.04
69187;BME280;56301;56.864;60.554;2023-08-21T00:49:22;98099.56;;;23.19;50.25
69187;BME280;56301;56.864;60.554;2023-08-21T00:51:44;98087.69;;;23.14;49.73
69187;BME280;56301;56.864;60.554;2023-08-21T00:54:07;98090.31;;;23.07;49.77
69187;BME280;56301;56.864;60.554;2023-08-21T00:56:29;98088.66;;;23.27;49.90
69187;BME280;56301;56.864;60.554;2023-08-21T00:58:52;98083.22;;;23.42;51.18
69187;BME280;56301;56.864;60.554;2023-08-21T01:01:16;98085.22;;;23.55;49.18
69187;BME280;56301;56.864;60.554;2023-08-21T01:03:40;98086.00;;;23.70;50.18
69187;BME280;56301;56.864;60.554;2023-08-21T01:06:03;98083.22;;;23.85;49.57
69187;BME280;56301;56.864;60.554;2023-08-21T01:08:28;98075.25;;;23.98;49.69
69187;BME280;56301;56.864;60.554;2023-08-21T01:10:53;98066.00;;;24.08;48.91
69187;BME280;56301;56.864;60.554;2023-08-21T01:15:59;98061.03;;;24.11;48.03
69187;BME280;56301;56.864;60.554;2023-08-21T01:18:23;98068.78;;;23.50;48.84
69187;BME280;56301;56.864;60.554;2023-08-21T01:20:46;98065.22;;;23.28;49.66
69187;BME280;56301;56.864;60.554;2023-08-21T01:23:09;98060.31;;;23.17;49.77
69187;BME280;56301;56.864;60.554;2023-08-21T01:25:32;98065.19;;;23.06;49.99
69187;BME280;56301;56.864;60.554;2023-08-21T01:27:55;98057.69;;;23.23;50.45
69187;BME280;56301;56.864;60.554;2023-08-21T01:30:18;98054.53;;;23.41;50.60
69187;BME280;56301;56.864;60.554;2023-08-21T01:35:15;98048.75;;;23.66;49.91
69187;BME280;56301;56.864;60.554;2023-08-21T01:37:37;98042.25;;;23.82;50.64
69187;BME280;56301;56.864;60.554;2023-08-21T01:40:00;98038.63;;;23.96;50.47
69187;BME280;56301;56.864;60.554;2023-08-21T01:42:23;98038.53;;;24.04;50.44
69187;BME280;56301;56.864;60.554;2023-08-21T01:44:45;98038.97;;;24.14;49.25
69187;BME280;56301;56.864;60.554;2023-08-21T01:47:07;98033.00;;;24.19;49.51
69187;BME280;56301;56.864;60.554;2023-08-21T01:49:33;98034.91;;;23.69;49.32
69187;BME280;56301;56.864;60.554;2023-08-21T01:51:55;98028.44;;;23.27;49.60
69187;BME280;56301;56.864;60.554;2023-08-21T01:54:17;98029.84;;;23.23;50.23
69187;BME280;56301;56.864;60.554;2023-08-21T01:56:40;98028.69;;;23.11;50.51
69187;BME280;56301;56.864;60.554;2023-08-21T01:59:04;98030.44;;;23.18;51.06
69187;BME280;56301;56.864;60.554;2023-08-21T02:01:27;98018.38;;;23.36;51.65
69187;BME280;56301;56.864;60.554;2023-08-21T02:03:50;98015.16;;;23.47;51.46
69187;BME280;56301;56.864;60.554;2023-08-21T02:06:13;98017.78;;;23.62;50.37
69187;BME280;56301;56.864;60.554;2023-08-21T02:08:35;98004.22;;;23.76;50.50
69187;BME280;56301;56.864;60.554;2023-08-21T02:10:58;98002.63;;;23.89;49.87
69187;BME280;56301;56.864;60.554;2023-08-21T02:13:20;98010.19;;;24.00;50.59
69187;BME280;56301;56.864;60.554;2023-08-21T02:15:43;98003.63;;;24.09;50.34
69187;BME280;56301;56.864;60.554;2023-08-21T02:18:05;98013.66;;;24.15;50.09
69187;BME280;56301;56.864;60.554;2023-08-21T02:20:28;98005.44;;;23.74;48.08
69187;BME280;56301;56.864;60.554;2023-08-21T02:22:50;98013.34;;;23.33;49.32
69187;BME280;56301;56.864;60.554;2023-08-21T02:25:13;98012.19;;;23.20;49.71
69187;BME280;56301;56.864;60.554;2023-08-21T02:27:37;98005.81;;;23.06;48.22
69187;BME280;56301;56.864;60.554;2023-08-21T02:30:00;98010.63;;;23.11;48.27
69187;BME280;56301;56.864;60.554;2023-08-21T02:32:26;98000.47;;;23.35;49.90
69187;BME280;56301;56.864;60.554;2023-08-21T02:34:48;98000.63;;;23.48;51.16
69187;BME280;56301;56.864;60.554;2023-08-21T02:37:11;97994.31;;;23.62;49.13
69187;BME280;56301;56.864;60.554;2023-08-21T02:39:33;97989.50;;;23.79;49.95
69187;BME280;56301;56.864;60.554;2023-08-21T02:41:56;97998.50;;;23.93;50.13
69187;BME280;56301;56.864;60.554;2023-08-21T02:44:18;97986.53;;;24.02;49.79
69187;BME280;56301;56.864;60.554;2023-08-21T02:46:41;97991.75;;;24.10;49.95
69187;BME280;56301;56.864;60.554;2023-08-21T02:49:03;97994.50;;;24.17;49.31
69187;BME280;56301;56.864;60.554;2023-08-21T02:51:26;97997.66;;;23.86;48.87
69187;BME280;56301;56.864;60.554;2023-08-21T02:53:48;98004.81;;;23.29;48.65
69187;BME280;56301;56.864;60.554;2023-08-21T02:56:10;98001.59;;;23.19;49.63
69187;BME280;56301;56.864;60.554;2023-08-21T02:58:34;98013.09;;;23.06;49.40
69187;BME280;56301;56.864;60.554;2023-08-21T03:00:56;98012.81;;;23.01;49.48
69187;BME280;56301;56.864;60.554;2023-08-21T03:03:19;98012.84;;;23.22;48.85
69187;BME280;56301;56.864;60.554;2023-08-21T03:05:42;98003.19;;;23.35;50.17
69187;BME280;56301;56.864;60.554;2023-08-21T03:08:04;97995.22;;;23.48;48.20
69187;BME280;56301;56.864;60.554;2023-08-21T03:10:27;97993.25;;;23.63;49.46
69187;BME280;56301;56.864;60.554;2023-08-21T03:12:49;97985.97;;;23.78;49.29
69187;BME280;56301;56.864;60.554;2023-08-21T03:15:12;97984.38;;;23.91;49.42
69187;BME280;56301;56.864;60.554;2023-08-21T03:17:35;97981.50;;;23.99;48.69
69187;BME280;56301;56.864;60.554;2023-08-21T03:19:57;97979.50;;;24.08;48.69
69187;BME280;56301;56.864;60.554;2023-08-21T03:22:21;97975.16;;;24.13;48.97
69187;BME280;56301;56.864;60.554;2023-08-21T03:24:43;97977.25;;;24.18;48.64
69187;BME280;56301;56.864;60.554;2023-08-21T03:27:06;97973.75;;;23.61;48.90
69187;BME280;56301;56.864;60.554;2023-08-21T03:29:29;97971.97;;;23.25;49.17
69187;BME280;56301;56.864;60.554;2023-08-21T03:31:52;97974.16;;;23.15;48.24
69187;BME280;56301;56.864;60.554;2023-08-21T03:34:15;97975.78;;;23.10;50.05
69187;BME280;56301;56.864;60.554;2023-08-21T03:36:38;97967.91;;;23.15;50.37
69187;BME280;56301;56.864;60.554;2023-08-21T03:39:01;97969.34;;;23.32;51.94
69187;BME280;56301;56.864;60.554;2023-08-21T03:41:25;97957.41;;;23.48;49.77
69187;BME280;56301;56.864;60.554;2023-08-21T03:43:48;97963.84;;;23.68;49.52
69187;BME280;56301;56.864;60.554;2023-08-21T03:46:10;97958.13;;;23.85;49.25
69187;BME280;56301;56.864;60.554;2023-08-21T03:48:32;97955.75;;;24.03;48.86
69187;BME280;56301;56.864;60.554;2023-08-21T03:50:57;97959.16;;;24.12;49.69
69187;BME280;56301;56.864;60.554;2023-08-21T03:53:20;97958.16;;;24.19;48.79
69187;BME280;56301;56.864;60.554;2023-08-21T03:55:42;97960.22;;;23.89;47.97
69187;BME280;56301;56.864;60.554;2023-08-21T03:58:05;97964.38;;;23.36;48.34
69187;BME280;56301;56.864;60.554;2023-08-21T04:00:28;97956.22;;;23.08;47.90
69187;BME280;56301;56.864;60.554;2023-08-21T04:02:51;97967.25;;;23.13;49.38
69187;BME280;56301;56.864;60.554;2023-08-21T04:05:13;97959.00;;;23.14;49.11
69187;BME280;56301;56.864;60.554;2023-08-21T04:07:36;97956.47;;;23.13;49.30
69187;BME280;56301;56.864;60.554;2023-08-21T04:09:59;97966.25;;;23.14;49.61
69187;BME280;56301;56.864;60.554;2023-08-21T04:12:22;97959.31;;;23.26;50.11
69187;BME280;56301;56.864;60.554;2023-08-21T04:14:45;97953.66;;;23.42;50.05
69187;BME280;56301;56.864;60.554;2023-08-21T04:17:07;97957.28;;;23.56;51.19
69187;BME280;56301;56.864;60.554;2023-08-21T04:19:30;97945.94;;;23.67;51.22
69187;BME280;56301;56.864;60.554;2023-08-21T04:21:52;97945.19;;;23.73;52.29
69187;BME280;56301;56.864;60.554;2023-08-21T04:24:15;97946.31;;;23.86;51.68
69187;BME280;56301;56.864;60.554;2023-08-21T04:26:37;97946.16;;;23.94;51.72
69187;BME280;56301;56.864;60.554;2023-08-21T04:29:00;97945.34;;;24.00;50.00
69187;BME280;56301;56.864;60.554;2023-08-21T04:31:22;97942.09;;;24.11;49.34
69187;BME280;56301;56.864;60.554;2023-08-21T04:33:45;97940.88;;;24.20;49.78
69187;BME280;56301;56.864;60.554;2023-08-21T04:36:07;97935.53;;;24.27;49.87
69187;BME280;56301;56.864;60.554;2023-08-21T04:38:36;97930.16;;;24.34;48.49
69187;BME280;56301;56.864;60.554;2023-08-21T04:41:05;97934.75;;;24.40;48.91
69187;BME280;56301;56.864;60.554;2023-08-21T04:43:28;97928.97;;;24.43;48.98
69187;BME280;56301;56.864;60.554;2023-08-21T04:45:51;97927.50;;;24.47;48.35
69187;BME280;56301;56.864;60.554;2023-08-21T04:48:14;97917.34;;;24.49;48.15
69187;BME280;56301;56.864;60.554;2023-08-21T04:50:36;97915.91;;;24.53;48.20
69187;BME280;56301;56.864;60.554;2023-08-21T04:52:59;97918.19;;;24.56;48.16
69187;BME280;56301;56.864;60.554;2023-08-21T04:55:22;97913.63;;;24.57;48.24
69187;BME280;56301;56.864;60.554;2023-08-21T04:57:44;97914.03;;;24.60;48.06
69187;BME280;56301;56.864;60.554;2023-08-21T05:00:08;97912.00;;;24.62;47.91
69187;BME280;56301;56.864;60.554;2023-08-21T05:02:34;97908.22;;;24.63;48.50
69187;BME280;56301;56.864;60.554;2023-08-21T05:04:57;97906.16;;;24.65;48.56
69187;BME280;56301;56.864;60.554;2023-08-21T05:07:19;97902.44;;;24.66;48.29
69187;BME280;56301;56.864;60.554;2023-08-21T05:09:42;97897.84;;;24.67;48.12
69187;BME280;56301;56.864;60.554;2023-08-21T05:12:07;97891.19;;;24.69;48.09
69187;BME280;56301;56.864;60.554;2023-08-21T05:14:29;97895.56;;;24.70;47.63
69187;BME280;56301;56.864;60.554;2023-08-21T05:16:52;97887.03;;;24.73;47.45
69187;BME280;56301;56.864;60.554;2023-08-21T05:19:16;97877.88;;;24.74;47.78
69187;BME280;56301;56.864;60.554;2023-08-21T05:21:39;97874.78;;;24.78;47.73
69187;BME280;56301;56.864;60.554;2023-08-21T05:24:02;97876.25;;;24.80;47.38
69187;BME280;56301;56.864;60.554;2023-08-21T05:26:26;97876.03;;;24.82;47.95
69187;BME280;56301;56.864;60.554;2023-08-21T05:28:49;97876.66;;;24.84;48.02
69187;BME280;56301;56.864;60.554;2023-08-21T05:31:11;97871.88;;;24.86;47.60
69187;BME280;56301;56.864;60.554;2023-08-21T05:33:45;97872.91;;;24.85;47.06
69187;BME280;56301;56.864;60.554;2023-08-21T05:36:08;97873.53;;;24.87;47.18
69187;BME280;56301;56.864;60.554;2023-08-21T05:38:32;97866.22;;;24.87;47.23
69187;BME280;56301;56.864;60.554;2023-08-21T05:40:54;97866.44;;;24.86;47.26
69187;BME280;56301;56.864;60.554;2023-08-21T05:43:17;97872.50;;;24.88;47.43
69187;BME280;56301;56.864;60.554;2023-08-21T05:45:39;97859.16;;;24.86;47.30
69187;BME280;56301;56.864;60.554;2023-08-21T05:48:02;97853.75;;;24.86;48.25
69187;BME280;56301;56.864;60.554;2023-08-21T05:50:25;97853.75;;;24.86;47.54
69187;BME280;56301;56.864;60.554;2023-08-21T05:52:48;97850.84;;;24.88;47.31
69187;BME280;56301;56.864;60.554;2023-08-21T05:55:10;97853.34;;;24.89;47.52
69187;BME280;56301;56.864;60.554;2023-08-21T05:57:34;97851.47;;;24.90;47.83
69187;BME280;56301;56.864;60.554;2023-08-21T05:59:57;97846.69;;;24.92;47.53
69187;BME280;56301;56.864;60.554;2023-08-21T06:02:21;97848.53;;;24.98;47.41
69187;BME280;56301;56.864;60.554;2023-08-21T06:04:45;97847.72;;;25.04;47.41
69187;BME280;56301;56.864;60.554;2023-08-21T06:07:08;97850.66;;;25.09;47.31
69187;BME280;56301;56.864;60.554;2023-08-21T06:09:30;97843.81;;;25.13;47.40
69187;BME280;56301;56.864;60.554;2023-08-21T06:11:53;97838.16;;;24.82;46.91
69187;BME280;56301;56.864;60.554;2023-08-21T06:14:16;97836.75;;;24.31;47.70
69187;BME280;56301;56.864;60.554;2023-08-21T06:16:38;97836.63;;;23.98;47.43
69187;BME280;56301;56.864;60.554;2023-08-21T06:19:01;97829.47;;;23.77;47.60
69187;BME280;56301;56.864;60.554;2023-08-21T06:21:24;97838.94;;;24.01;48.81
69187;BME280;56301;56.864;60.554;2023-08-21T06:23:46;97832.75;;;24.14;50.00
69187;BME280;56301;56.864;60.554;2023-08-21T06:26:10;97823.53;;;23.95;47.95
69187;BME280;56301;56.864;60.554;2023-08-21T06:28:33;97828.22;;;23.73;47.87
69187;BME280;56301;56.864;60.554;2023-08-21T06:30:56;97836.44;;;23.65;47.30
69187;BME280;56301;56.864;60.554;2023-08-21T06:33:19;97829.56;;;23.62;47.69
69187;BME280;56301;56.864;60.554;2023-08-21T06:35:41;97823.72;;;23.59;47.53
69187;BME280;56301;56.864;60.554;2023-08-21T06:38:04;97822.91;;;23.58;47.55
69187;BME280;56301;56.864;60.554;2023-08-21T06:40:27;97821.00;;;23.52;47.60
69187;BME280;56301;56.864;60.554;2023-08-21T06:42:50;97821.59;;;23.47;47.88
69187;BME280;56301;56.864;60.554;2023-08-21T06:45:14;97819.13;;;23.52;48.23
69187;BME280;56301;56.864;60.554;2023-08-21T06:47:37;97814.31;;;23.76;49.15
69187;BME280;56301;56.864;60.554;2023-08-21T06:50:00;97814.41;;;24.02;50.49
69187;BME280;56301;56.864;60.554;2023-08-21T06:52:23;97816.75;;;24.25;51.10
69187;BME280;56301;56.864;60.554;2023-08-21T06:54:45;97815.78;;;24.40;51.06
69187;BME280;56301;56.864;60.554;2023-08-21T06:57:08;97807.13;;;24.51;51.94
69187;BME280;56301;56.864;60.554;2023-08-21T06:59:30;97808.34;;;24.62;52.22
69187;BME280;56301;56.864;60.554;2023-08-21T07:01:53;97804.81;;;24.68;51.84
69187;BME280;56301;56.864;60.554;2023-08-21T07:04:15;97804.84;;;24.74;52.12
69187;BME280;56301;56.864;60.554;2023-08-21T07:06:38;97797.34;;;24.70;51.45
69187;BME280;56301;56.864;60.554;2023-08-21T07:09:02;97802.44;;;24.32;50.99
69187;BME280;56301;56.864;60.554;2023-08-21T07:11:25;97798.22;;;24.09;50.09
69187;BME280;56301;56.864;60.554;2023-08-21T07:13:49;97808.16;;;23.95;49.41
69187;BME280;56301;56.864;60.554;2023-08-21T07:16:11;97796.06;;;23.85;48.76
69187;BME280;56301;56.864;60.554;2023-08-21T07:18:35;97806.00;;;23.77;48.03
69187;BME280;56301;56.864;60.554;2023-08-21T07:20:57;97800.38;;;23.72;48.08
69187;BME280;56301;56.864;60.554;2023-08-21T07:23:20;97799.78;;;23.84;49.06
69187;BME280;56301;56.864;60.554;2023-08-21T07:25:43;97793.38;;;23.91;50.03
69187;BME280;56301;56.864;60.554;2023-08-21T07:28:06;97800.25;;;23.94;50.31
69187;BME280;56301;56.864;60.554;2023-08-21T07:30:29;97798.56;;;23.93;50.67
69187;BME280;56301;56.864;60.554;2023-08-21T07:32:52;97791.91;;;23.89;50.48
69187;BME280;56301;56.864;60.554;2023-08-21T07:35:15;97800.22;;;23.87;50.86
69187;BME280;56301;56.864;60.554;2023-08-21T07:37:38;97787.72;;;23.80;50.44
69187;BME280;56301;56.864;60.554;2023-08-21T07:40:01;97790.25;;;23.88;50.69
69187;BME280;56301;56.864;60.554;2023-08-21T07:42:24;97788.25;;;24.10;51.76
69187;BME280;56301;56.864;60.554;2023-08-21T07:44:47;97790.59;;;24.33;52.18
69187;BME280;56301;56.864;60.554;2023-08-21T07:47:09;97773.81;;;24.50;51.59
69187;BME280;56301;56.864;60.554;2023-08-21T07:49:32;97767.16;;;24.60;51.75
69187;BME280;56301;56.864;60.554;2023-08-21T07:51:55;97768.84;;;24.67;52.77
69187;BME280;56301;56.864;60.554;2023-08-21T07:54:17;97776.53;;;24.70;52.09
69187;BME280;56301;56.864;60.554;2023-08-21T07:56:40;97764.25;;;24.74;51.82
69187;BME280;56301;56.864;60.554;2023-08-21T07:59:02;97767.94;;;24.34;49.69
69187;BME280;56301;56.864;60.554;2023-08-21T08:01:26;97761.19;;;24.03;48.93
69187;BME280;56301;56.864;60.554;2023-08-21T08:03:48;97753.47;;;23.87;48.32
69187;BME280;56301;56.864;60.554;2023-08-21T08:06:10;97759.06;;;23.78;47.59
69187;BME280;56301;56.864;60.554;2023-08-21T08:08:33;97746.97;;;23.68;47.13
69187;BME280;56301;56.864;60.554;2023-08-21T08:10:59;97750.22;;;23.63;46.57
69187;BME280;56301;56.864;60.554;2023-08-21T08:13:22;97756.22;;;23.59;45.78
69187;BME280;56301;56.864;60.554;2023-08-21T08:15:44;97759.28;;;23.49;45.79
69187;BME280;56301;56.864;60.554;2023-08-21T08:18:10;97758.41;;;23.42;45.92
69187;BME280;56301;56.864;60.554;2023-08-21T08:20:33;97744.69;;;23.37;45.79
69187;BME280;56301;56.864;60.554;2023-08-21T08:22:56;97753.94;;;23.55;47.15
69187;BME280;56301;56.864;60.554;2023-08-21T08:25:19;97755.91;;;23.68;48.07
69187;BME280;56301;56.864;60.554;2023-08-21T08:27:43;97746.53;;;23.71;48.48
69187;BME280;56301;56.864;60.554;2023-08-21T08:30:06;97758.63;;;23.75;48.27
69187;BME280;56301;56.864;60.554;2023-08-21T08:32:29;97754.50;;;23.79;48.88
69187;BME280;56301;56.864;60.554;2023-08-21T08:34:51;97746.38;;;23.79;48.90
69187;BME280;56301;56.864;60.554;2023-08-21T08:37:14;97738.47;;;23.77;49.06
69187;BME280;56301;56.864;60.554;2023-08-21T08:39:37;97743.25;;;23.75;49.56
69187;BME280;56301;56.864;60.554;2023-08-21T08:42:08;97751.97;;;23.77;49.78
69187;BME280;56301;56.864;60.554;2023-08-21T08:44:30;97742.53;;;24.08;49.81
69187;BME280;56301;56.864;60.554;2023-08-21T08:46:55;97742.38;;;24.30;50.43
69187;BME280;56301;56.864;60.554;2023-08-21T08:49:18;97744.06;;;24.44;50.72
69187;BME280;56301;56.864;60.554;2023-08-21T08:51:41;97737.81;;;24.50;50.62
69187;BME280;56301;56.864;60.554;2023-08-21T08:54:06;97738.88;;;24.49;51.87
69187;BME280;56301;56.864;60.554;2023-08-21T08:56:29;97745.31;;;24.55;52.31
69187;BME280;56301;56.864;60.554;2023-08-21T08:58:52;97735.34;;;24.55;52.90
69187;BME280;56301;56.864;60.554;2023-08-21T09:01:15;97739.88;;;24.35;50.55
69187;BME280;56301;56.864;60.554;2023-08-21T09:03:37;97745.81;;;23.97;49.34
69187;BME280;56301;56.864;60.554;2023-08-21T09:06:00;97741.56;;;23.74;48.74
69187;BME280;56301;56.864;60.554;2023-08-21T09:08:22;97749.59;;;23.61;47.89
69187;BME280;56301;56.864;60.554;2023-08-21T09:10:45;97744.78;;;23.50;47.54
69187;BME280;56301;56.864;60.554;2023-08-21T09:13:17;97749.31;;;23.43;47.27
69187;BME280;56301;56.864;60.554;2023-08-21T09:15:40;97743.91;;;23.43;46.81
69187;BME280;56301;56.864;60.554;2023-08-21T09:18:03;97743.50;;;23.46;46.44
69187;BME280;56301;56.864;60.554;2023-08-21T09:20:26;97745.78;;;23.49;46.08
69187;BME280;56301;56.864;60.554;2023-08-21T09:22:54;97736.84;;;23.48;46.30
69187;BME280;56301;56.864;60.554;2023-08-21T09:25:17;97724.91;;;23.64;47.15
69187;BME280;56301;56.864;60.554;2023-08-21T09:27:39;97723.69;;;23.73;47.63
69187;BME280;56301;56.864;60.554;2023-08-21T09:30:05;97725.78;;;23.78;48.67
69187;BME280;56301;56.864;60.554;2023-08-21T09:32:28;97728.72;;;23.76;48.52
69187;BME280;56301;56.864;60.554;2023-08-21T09:34:50;97729.97;;;23.81;49.32
69187;BME280;56301;56.864;60.554;2023-08-21T09:37:13;97726.22;;;23.82;49.28
69187;BME280;56301;56.864;60.554;2023-08-21T09:39:36;97728.72;;;23.83;49.49
69187;BME280;56301;56.864;60.554;2023-08-21T09:41:58;97736.44;;;23.86;49.98
69187;BME280;56301;56.864;60.554;2023-08-21T09:44:21;97735.19;;;23.89;50.48
69187;BME280;56301;56.864;60.554;2023-08-21T09:46:43;97733.31;;;23.89;50.86
69187;BME280;56301;56.864;60.554;2023-08-21T09:49:10;97732.72;;;23.94;50.48
69187;BME280;56301;56.864;60.554;2023-08-21T09:51:33;97730.00;;;23.94;50.54
69187;BME280;56301;56.864;60.554;2023-08-21T09:53:55;97733.53;;;23.94;51.08
69187;BME280;56301;56.864;60.554;2023-08-21T09:56:18;97726.28;;;23.95;51.78
69187;BME280;56301;56.864;60.554;2023-08-21T09:58:40;97729.38;;;23.92;51.91
69187;BME280;56301;56.864;60.554;2023-08-21T10:01:06;97718.56;;;23.92;51.84
69187;BME280;56301;56.864;60.554;2023-08-21T10:03:29;97715.47;;;23.95;51.95
69187;BME280;56301;56.864;60.554;2023-08-21T10:05:54;97714.66;;;24.01;52.15
69187;BME280;56301;56.864;60.554;2023-08-21T10:08:23;97708.41;;;24.07;51.92
69187;BME280;56301;56.864;60.554;2023-08-21T10:10:46;97702.59;;;24.10;51.83
69187;BME280;56301;56.864;60.554;2023-08-21T10:13:08;97708.03;;;24.17;51.21
69187;BME280;56301;56.864;60.554;2023-08-21T10:15:31;97708.44;;;24.20;51.81
69187;BME280;56301;56.864;60.554;2023-08-21T10:17:54;97707.00;;;24.24;51.63
69187;BME280;56301;56.864;60.554;2023-08-21T10:20:20;97710.53;;;24.25;51.60
69187;BME280;56301;56.864;60.554;2023-08-21T10:22:44;97705.34;;;24.23;52.09
69187;BME280;56301;56.864;60.554;2023-08-21T10:25:14;97695.56;;;24.22;52.46
69187;BME280;56301;56.864;60.554;2023-08-21T10:27:36;97704.50;;;24.23;52.65
69187;BME280;56301;56.864;60.554;2023-08-21T10:30:00;97704.50;;;24.23;52.66
69187;BME280;56301;56.864;60.554;2023-08-21T10:32:22;97696.59;;;24.21;53.08
69187;BME280;56301;56.864;60.554;2023-08-21T10:34:45;97705.34;;;24.23;52.52
69187;BME280;56301;56.864;60.554;2023-08-21T10:37:13;97698.47;;;24.21;53.07
69187;BME280;56301;56.864;60.554;2023-08-21T10:39:35;97707.41;;;24.21;53.08
69187;BME280;56301;56.864;60.554;2023-08-21T10:47:12;97689.94;;;24.31;54.09
69187;BME280;56301;56.864;60.554;2023-08-21T10:49:35;97685.78;;;24.28;54.25
69187;BME280;56301;56.864;60.554;2023-08-21T10:51:57;97687.66;;;24.27;53.82
69187;BME280;56301;56.864;60.554;2023-08-21T10:54:20;97683.72;;;24.30;53.69
69187;BME280;56301;56.864;60.554;2023-08-21T10:56:42;97678.72;;;24.34;53.89
69187;BME280;56301;56.864;60.554;2023-08-21T10:59:05;97669.56;;;24.35;53.69
69187;BME280;56301;56.864;60.554;2023-08-21T11:01:40;97665.22;;;24.34;53.16
69187;BME280;56301;56.864;60.554;2023-08-21T11:04:03;97662.69;;;24.12;52.60
69187;BME280;56301;56.864;60.554;2023-08-21T11:06:25;97660.19;;;23.91;52.08
69187;BME280;56301;56.864;60.554;2023-08-21T11:08:48;97665.13;;;23.81;51.74
69187;BME280;56301;56.864;60.554;2023-08-21T11:11:10;97664.09;;;23.75;51.32
69187;BME280;56301;56.864;60.554;2023-08-21T11:13:33;97669.50;;;23.75;51.74
69187;BME280;56301;56.864;60.554;2023-08-21T11:15:59;97664.28;;;23.73;51.31
69187;BME280;56301;56.864;60.554;2023-08-21T11:18:22;97662.63;;;23.72;51.79
69187;BME280;56301;56.864;60.554;2023-08-21T11:20:44;97652.88;;;23.85;52.21
69187;BME280;56301;56.864;60.554;2023-08-21T11:23:07;97664.97;;;24.09;53.28
69187;BME280;56301;56.864;60.554;2023-08-21T11:25:29;97659.78;;;24.20;54.15
69187;BME280;56301;56.864;60.554;2023-08-21T11:27:52;97662.69;;;24.25;54.54
69187;BME280;56301;56.864;60.554;2023-08-21T11:30:15;97654.81;;;24.31;55.12
69187;BME280;56301;56.864;60.554;2023-08-21T11:32:37;97656.06;;;24.35;55.14
69187;BME280;56301;56.864;60.554;2023-08-21T11:35:00;97660.88;;;24.46;56.04
69187;BME280;56301;56.864;60.554;2023-08-21T11:37:26;97645.47;;;24.53;55.65
69187;BME280;56301;56.864;60.554;2023-08-21T11:39:50;97646.06;;;24.82;53.96
69187;BME280;56301;56.864;60.554;2023-08-21T11:42:12;97649.81;;;24.81;58.58
69187;BME280;56301;56.864;60.554;2023-08-21T11:44:39;97655.88;;;24.69;59.04
69187;BME280;56301;56.864;60.554;2023-08-21T11:47:02;97643.56;;;24.73;57.54
69187;BME280;56301;56.864;60.554;2023-08-21T11:49:24;97652.31;;;24.76;54.68
69187;BME280;56301;56.864;60.554;2023-08-21T11:51:47;97623.59;;;24.74;57.28
69187;BME280;56301;56.864;60.554;2023-08-21T11:54:09;97640.88;;;24.73;55.77
69187;BME280;56301;56.864;60.554;2023-08-21T11:56:32;97640.88;;;24.73;55.05
69187;BME280;56301;56.864;60.554;2023-08-21T11:58:54;97627.34;;;24.73;55.17
69187;BME280;56301;56.864;60.554;2023-08-21T12:01:17;97642.53;;;24.74;54.19
69187;BME280;56301;56.864;60.554;2023-08-21T12:03:39;97639.59;;;24.76;55.07
69187;BME280;56301;56.864;60.554;2023-08-21T12:06:04;97643.16;;;24.77;53.86
69187;BME280;56301;56.864;60.554;2023-08-21T12:08:27;97636.06;;;24.76;54.63
69187;BME280;56301;56.864;60.554;2023-08-21T12:10:50;97635.03;;;24.77;55.18
69187;BME280;56301;56.864;60.554;2023-08-21T12:13:12;97628.59;;;24.78;54.02
69187;BME280;56301;56.864;60.554;2023-08-21T12:15:35;97631.91;;;24.80;54.27
69187;BME280;56301;56.864;60.554;2023-08-21T12:17:58;97635.22;;;24.82;52.81
69187;BME280;56301;56.864;60.554;2023-08-21T12:20:20;97631.28;;;24.84;52.62
69187;BME280;56301;56.864;60.554;2023-08-21T12:22:43;97631.06;;;24.86;53.09
69187;BME280;56301;56.864;60.554;2023-08-21T12:25:05;97632.72;;;24.87;52.97
69187;BME280;56301;56.864;60.554;2023-08-21T12:27:28;97629.59;;;24.90;53.92
69187;BME280;56301;56.864;60.554;2023-08-21T12:29:51;97637.69;;;24.90;53.07
69187;BME280;56301;56.864;60.554;2023-08-21T12:32:13;97634.81;;;24.91;51.82
69187;BME280;56301;56.864;60.554;2023-08-21T12:34:36;97636.66;;;24.91;52.00
69187;BME280;56301;56.864;60.554;2023-08-21T12:36:58;97633.94;;;24.91;52.06
69187;BME280;56301;56.864;60.554;2023-08-21T12:39:20;97626.88;;;24.90;50.73